Time;durP1;ratioP1;P1;durP2;ratioP2;P2;SDS_P1;SDS_P2;PMS_P1;PMS_P2;Temp;Humidity;BMP_temperature;BMP_pressure;BME280_temperature;BME280_humidity;BME280_pressure;Samples;Min_cycle;Max_cycle;Signal;HPM_P1;HPM_P2
2023/03/09 00:02:20;;;;;;;16.50;6.50;;;3.00;99.90;;;;;;5015233;28;20895;-66
2023/03/09 00:04:47;;;;;;;15.43;6.50;;;3.10;99.90;;;;;;5014346;28;20508;-66
2023/03/09 00:07:14;;;;;;;11.90;5.33;;;3.10;99.90;;;;;;5018432;28;20474;-62
2023/03/09 00:09:41;;;;;;;9.87;5.50;;;3.00;99.90;;;;;;5034699;28;20505;-60
2023/03/09 00:12:08;;;;;;;17.27;6.20;;;3.00;99.90;;;;;;5035286;28;20449;-65
2023/03/09 00:14:39;;;;;;;10.80;6.63;;;3.00;99.90;;;;;;5036143;28;20444;-65
2023/03/09 00:17:06;;;;;;;16.00;6.77;;;3.00;99.90;;;;;;5035167;28;20476;-62
2023/03/09 00:19:35;;;;;;;11.43;6.93;;;3.10;99.90;;;;;;5034970;28;20462;-65
2023/03/09 00:22:02;;;;;;;10.73;5.83;;;3.10;99.90;;;;;;5035037;28;20437;-64
2023/03/09 00:24:29;;;;;;;12.57;6.90;;;3.10;99.90;;;;;;5035129;28;20468;-60
2023/03/09 00:26:57;;;;;;;14.40;7.27;;;3.10;99.90;;;;;;5035170;28;20445;-64
2023/03/09 00:29:26;;;;;;;12.93;6.30;;;3.00;99.90;;;;;;5036198;28;20483;-64
2023/03/09 00:31:54;;;;;;;10.27;6.90;;;3.10;99.90;;;;;;5036219;28;20437;-65
2023/03/09 00:34:21;;;;;;;11.50;6.97;;;3.10;99.90;;;;;;5036701;28;20444;-60
2023/03/09 00:36:49;;;;;;;10.90;5.37;;;3.00;99.90;;;;;;5036298;28;20413;-63
2023/03/09 00:39:19;;;;;;;14.50;7.90;;;3.00;99.90;;;;;;5036317;28;20425;-57
2023/03/09 00:41:46;;;;;;;11.27;5.10;;;3.00;99.90;;;;;;5037213;28;20476;-63
2023/03/09 00:44:14;;;;;;;13.13;7.67;;;3.00;99.90;;;;;;5038579;28;20437;-66
2023/03/09 00:46:44;;;;;;;8.87;6.57;;;3.00;99.90;;;;;;5039190;28;20471;-61
2023/03/09 00:49:15;;;;;;;18.10;8.40;;;3.10;99.90;;;;;;5039367;28;20457;-59
2023/03/09 00:51:45;;;;;;;10.30;6.93;;;3.10;99.90;;;;;;5039564;28;20453;-64
2023/03/09 00:54:13;;;;;;;17.20;7.83;;;2.60;99.90;;;;;;5040011;28;20451;-62
2023/03/09 00:56:40;;;;;;;12.27;7.50;;;3.10;99.90;;;;;;5039435;28;20452;-57
2023/03/09 00:59:07;;;;;;;18.80;8.13;;;3.10;99.90;;;;;;5038434;28;20449;-67
2023/03/09 01:01:34;;;;;;;12.23;7.00;;;3.00;99.90;;;;;;5031777;28;20449;-65
2023/03/09 01:04:01;;;;;;;13.70;7.20;;;3.00;99.90;;;;;;5022237;28;20441;-61
2023/03/09 01:06:29;;;;;;;13.63;8.60;;;3.00;99.90;;;;;;5019882;28;20448;-64
2023/03/09 01:08:56;;;;;;;16.70;7.20;;;3.00;99.90;;;;;;5019447;28;20489;-59
2023/03/09 01:11:24;;;;;;;16.30;7.70;;;3.00;99.90;;;;;;5019278;28;20469;-61
2023/03/09 01:13:54;;;;;;;12.07;6.07;;;3.10;99.90;;;;;;5019317;28;20512;-63
2023/03/09 01:16:21;;;;;;;16.33;7.77;;;3.00;99.90;;;;;;5019978;28;20476;-59
2023/03/09 01:18:48;;;;;;;13.30;7.90;;;3.00;99.90;;;;;;5019805;28;20477;-60
2023/03/09 01:21:15;;;;;;;15.93;7.00;;;3.00;99.90;;;;;;5019833;28;20472;-62
2023/03/09 01:23:43;;;;;;;13.63;7.97;;;3.00;99.90;;;;;;5019414;28;20489;-64
2023/03/09 01:26:11;;;;;;;13.30;7.40;;;3.00;99.90;;;;;;5019511;28;20454;-56
2023/03/09 01:28:41;;;;;;;13.33;6.50;;;2.10;99.90;;;;;;5019929;28;20512;-56
2023/03/09 01:31:12;;;;;;;18.17;7.70;;;3.50;99.90;;;;;;5019376;28;20458;-64
2023/03/09 01:33:40;;;;;;;13.17;9.73;;;3.00;99.90;;;;;;5019925;28;20453;-58
2023/03/09 01:36:09;;;;;;;16.43;8.30;;;3.00;99.90;;;;;;5019466;28;20450;-60
2023/03/09 01:38:36;;;;;;;14.93;7.03;;;3.00;99.90;;;;;;5019768;28;20442;-63
2023/03/09 01:41:05;;;;;;;15.60;8.20;;;3.00;99.90;;;;;;5019351;28;20454;-59
2023/03/09 01:43:39;;;;;;;13.37;6.67;;;3.00;99.90;;;;;;5018865;28;20447;-61
2023/03/09 01:46:32;;;;;;;14.93;8.00;;;3.00;99.90;;;;;;5019777;28;20511;-59
2023/03/09 01:49:04;;;;;;;13.07;7.67;;;3.00;99.90;;;;;;5009974;28;20501;-64
2023/03/09 01:51:36;;;;;;;13.03;7.70;;;2.90;99.90;;;;;;5019141;28;20442;-61
2023/03/09 01:54:07;;;;;;;13.37;6.53;;;2.90;99.90;;;;;;5018522;28;20461;-59
2023/03/09 01:56:37;;;;;;;24.37;8.60;;;2.90;99.90;;;;;;5019560;28;20418;-61
2023/03/09 01:59:05;;;;;;;18.70;9.60;;;2.90;99.90;;;;;;5019236;28;20497;-63
2023/03/09 02:01:38;;;;;;;20.23;10.20;;;2.90;99.90;;;;;;5019214;28;20437;-60
2023/03/09 02:04:11;;;;;;;11.80;7.10;;;2.90;99.90;;;;;;5018778;28;20430;-61
2023/03/09 02:06:38;;;;;;;17.37;8.30;;;2.90;99.90;;;;;;5018764;28;20442;-60
2023/03/09 02:09:15;;;;;;;13.00;8.47;;;2.90;99.90;;;;;;5018590;28;20485;-59
2023/03/09 02:11:45;;;;;;;25.87;8.87;;;2.80;99.90;;;;;;5017459;28;20462;-64
2023/03/09 02:14:13;;;;;;;15.90;9.40;;;2.80;99.90;;;;;;5016341;28;20482;-66
2023/03/09 02:16:40;;;;;;;17.60;8.90;;;2.80;99.90;;;;;;5015508;28;20433;-64
2023/03/09 02:19:13;;;;;;;17.47;8.00;;;2.80;99.90;;;;;;5017382;28;20450;-63
2023/03/09 02:21:48;;;;;;;17.13;8.90;;;2.80;99.90;;;;;;5018179;28;20481;-62
2023/03/09 02:24:20;;;;;;;14.40;7.60;;;2.80;99.90;;;;;;5018170;28;20434;-65
2023/03/09 02:26:53;;;;;;;15.17;7.00;;;2.80;99.90;;;;;;5017928;28;20422;-61
2023/03/09 02:29:24;;;;;;;13.60;8.50;;;2.80;99.90;;;;;;5017973;28;20581;-60
2023/03/09 02:31:52;;;;;;;18.33;8.97;;;2.80;99.90;;;;;;5015982;28;20454;-64
2023/03/09 02:34:19;;;;;;;14.07;8.43;;;2.80;99.90;;;;;;5015745;28;20458;-66
2023/03/09 02:36:46;;;;;;;13.77;8.23;;;2.90;99.90;;;;;;5014441;28;20470;-64
2023/03/09 02:39:21;;;;;;;16.30;8.70;;;2.80;99.90;;;;;;5015371;28;20457;-67
2023/03/09 02:41:49;;;;;;;12.33;6.50;;;2.80;99.90;;;;;;5015116;28;20488;-67
2023/03/09 02:44:16;;;;;;;17.03;10.00;;;2.80;99.90;;;;;;5007367;28;20533;-68
2023/03/09 02:46:44;;;;;;;17.57;8.17;;;2.80;99.90;;;;;;5008338;28;20497;-67
2023/03/09 02:49:11;;;;;;;21.83;9.67;;;2.80;99.90;;;;;;5007473;28;20513;-67
2023/03/09 02:51:38;;;;;;;18.00;8.03;;;2.70;99.90;;;;;;5006938;28;20517;-69
2023/03/09 02:54:05;;;;;;;16.40;7.27;;;2.70;99.90;;;;;;5007772;28;20474;-69
2023/03/09 02:56:32;;;;;;;16.07;7.00;;;2.70;99.90;;;;;;5009313;28;20469;-68
2023/03/09 02:59:01;;;;;;;16.40;7.90;;;2.70;99.90;;;;;;5008516;28;20486;-67
2023/03/09 03:01:28;;;;;;;16.87;8.70;;;2.70;99.90;;;;;;5007463;28;20478;-67
2023/03/09 03:03:56;;;;;;;20.60;9.30;;;2.60;99.90;;;;;;5006632;28;20442;-67
2023/03/09 03:06:23;;;;;;;13.60;6.90;;;2.60;99.90;;;;;;5007594;28;20502;-67
2023/03/09 03:08:50;;;;;;;19.07;9.50;;;2.60;99.90;;;;;;5008234;28;20557;-68
2023/03/09 03:11:17;;;;;;;16.90;9.23;;;2.60;99.90;;;;;;5007595;28;20466;-66
2023/03/09 03:13:44;;;;;;;14.83;8.07;;;2.50;99.90;;;;;;5007101;28;20465;-67
2023/03/09 03:16:11;;;;;;;18.67;9.40;;;2.60;99.90;;;;;;5007554;28;20454;-62
2023/03/09 03:18:37;;;;;;;16.10;10.63;;;2.50;99.90;;;;;;5007165;28;20458;-67
2023/03/09 03:21:06;;;;;;;16.77;8.17;;;2.60;99.90;;;;;;5008556;28;20498;-67
2023/03/09 03:23:33;;;;;;;19.33;9.40;;;2.60;99.90;;;;;;5007785;28;20474;-64
2023/03/09 03:26:05;;;;;;;20.67;8.80;;;2.60;99.90;;;;;;5008090;28;20466;-67
2023/03/09 03:28:32;;;;;;;16.30;8.60;;;2.50;99.90;;;;;;5007850;28;20500;-69
2023/03/09 03:30:59;;;;;;;16.53;8.47;;;2.50;99.90;;;;;;5007628;28;20937;-66
2023/03/09 03:33:26;;;;;;;19.03;9.33;;;2.50;99.90;;;;;;5008667;28;21033;-65
2023/03/09 03:35:53;;;;;;;14.83;8.63;;;2.50;99.90;;;;;;5009469;28;20458;-65
2023/03/09 03:38:22;;;;;;;17.97;7.40;;;2.50;99.90;;;;;;5008739;28;20484;-65
2023/03/09 03:40:49;;;;;;;16.70;8.90;;;2.50;99.90;;;;;;5007693;28;20434;-66
2023/03/09 03:43:16;;;;;;;17.80;8.67;;;2.50;99.90;;;;;;5007339;28;20501;-67
2023/03/09 03:45:44;;;;;;;19.03;8.57;;;2.50;99.90;;;;;;5007587;28;20478;-66
2023/03/09 03:48:11;;;;;;;11.57;6.77;;;2.60;99.90;;;;;;5007980;28;20450;-63
2023/03/09 03:50:38;;;;;;;13.70;9.77;;;2.60;99.90;;;;;;5007504;28;20521;-65
2023/03/09 03:53:05;;;;;;;13.33;8.80;;;2.60;99.90;;;;;;5008770;28;20521;-67
2023/03/09 03:55:39;;;;;;;17.00;6.87;;;2.50;99.90;;;;;;5008091;28;20483;-68
2023/03/09 03:58:06;;;;;;;14.10;8.40;;;2.50;99.90;;;;;;5009417;28;20434;-68
2023/03/09 04:00:33;;;;;;;16.53;8.60;;;2.40;99.90;;;;;;5009106;28;20446;-69
2023/03/09 04:03:00;;;;;;;14.33;6.90;;;2.50;99.90;;;;;;5008275;28;20565;-65
2023/03/09 04:05:27;;;;;;;15.47;9.27;;;2.40;99.90;;;;;;5007775;28;20442;-65
2023/03/09 04:07:54;;;;;;;14.33;6.47;;;2.40;99.90;;;;;;5008622;28;20510;-65
2023/03/09 04:10:23;;;;;;;12.10;7.10;;;2.30;99.90;;;;;;5013748;28;20493;-60
2023/03/09 04:12:51;;;;;;;11.13;5.90;;;2.30;99.90;;;;;;5016544;28;20501;-65
2023/03/09 04:15:20;;;;;;;12.60;6.63;;;2.30;99.90;;;;;;5016287;28;20477;-64
2023/03/09 04:17:48;;;;;;;15.50;6.03;;;2.20;99.90;;;;;;5020048;28;20466;-62
2023/03/09 04:20:15;;;;;;;18.33;7.70;;;2.30;99.90;;;;;;5019513;28;20438;-64
2023/03/09 04:22:42;;;;;;;19.00;9.70;;;2.30;99.90;;;;;;5019861;28;20442;-61
2023/03/09 04:25:10;;;;;;;11.27;6.80;;;2.30;99.90;;;;;;5019308;28;20456;-65
2023/03/09 04:27:37;;;;;;;14.10;7.30;;;2.30;99.90;;;;;;5019653;28;20493;-60
2023/03/09 04:30:06;;;;;;;17.60;7.37;;;2.30;99.90;;;;;;5019030;28;20498;-63
2023/03/09 04:32:33;;;;;;;18.83;8.07;;;2.30;99.90;;;;;;5018799;28;20452;-63
2023/03/09 04:35:00;;;;;;;17.00;7.17;;;2.30;99.90;;;;;;5018976;28;20454;-64
2023/03/09 04:37:26;;;;;;;14.53;7.37;;;2.30;99.90;;;;;;5018730;28;20441;-64
2023/03/09 04:39:53;;;;;;;18.40;8.30;;;2.20;99.90;;;;;;5018784;28;20422;-62
2023/03/09 04:42:20;;;;;;;13.60;8.30;;;2.30;99.90;;;;;;5018520;28;20465;-58
2023/03/09 04:44:47;;;;;;;16.83;7.80;;;2.30;99.90;;;;;;5018766;28;20454;-61
2023/03/09 04:47:15;;;;;;;19.10;9.43;;;2.30;99.90;;;;;;5018576;28;20461;-65
2023/03/09 04:49:44;;;;;;;18.10;8.80;;;2.30;99.90;;;;;;5019082;28;20474;-65
2023/03/09 04:52:14;;;;;;;16.20;11.37;;;2.20;99.90;;;;;;5018582;28;20529;-62
2023/03/09 04:54:44;;;;;;;18.40;8.00;;;2.20;99.90;;;;;;5014773;28;20442;-62
2023/03/09 04:57:11;;;;;;;20.20;10.47;;;2.30;99.90;;;;;;5012544;28;20470;-65
2023/03/09 04:59:38;;;;;;;14.50;9.47;;;2.30;99.90;;;;;;5012839;28;20449;-68
2023/03/09 05:02:05;;;;;;;14.60;7.93;;;3.40;99.90;;;;;;5012393;28;20524;-68
2023/03/09 05:04:35;;;;;;;12.53;8.33;;;2.30;99.90;;;;;;5013013;28;20457;-65
2023/03/09 05:07:01;;;;;;;17.77;9.70;;;2.30;99.90;;;;;;5019439;28;20481;-64
2023/03/09 05:09:28;;;;;;;9.53;6.00;;;2.30;99.90;;;;;;5019441;28;20493;-62
2023/03/09 05:11:55;;;;;;;12.87;8.07;;;2.30;99.90;;;;;;5019418;28;20446;-62
2023/03/09 05:14:22;;;;;;;14.30;8.00;;;2.30;99.90;;;;;;5020167;28;20473;-61
2023/03/09 05:16:51;;;;;;;16.23;8.23;;;2.20;99.90;;;;;;5018426;28;20438;-60
2023/03/09 05:19:18;;;;;;;15.87;7.83;;;2.30;99.90;;;;;;5012751;28;20450;-65
2023/03/09 05:21:46;;;;;;;17.57;9.37;;;2.30;99.90;;;;;;5011035;28;20533;-67
2023/03/09 05:24:13;;;;;;;14.13;8.87;;;2.40;99.90;;;;;;5011488;28;20537;-66
2023/03/09 05:26:43;;;;;;;15.23;8.10;;;2.40;99.90;;;;;;5011143;28;20528;-68
2023/03/09 05:29:10;;;;;;;16.37;9.03;;;2.30;99.90;;;;;;5011411;28;20519;-63
2023/03/09 05:31:36;;;;;;;18.07;10.53;;;2.40;99.90;;;;;;5012157;28;20470;-67
2023/03/09 05:34:03;;;;;;;19.50;10.67;;;2.40;99.90;;;;;;5012528;28;20453;-65
2023/03/09 05:36:31;;;;;;;17.30;9.73;;;2.40;99.90;;;;;;5012233;28;20473;-67
2023/03/09 05:38:59;;;;;;;16.73;10.20;;;2.40;99.90;;;;;;5010529;28;20434;-65
2023/03/09 05:41:26;;;;;;;15.87;8.77;;;2.40;99.90;;;;;;5009885;28;20987;-67
2023/03/09 05:43:53;;;;;;;14.63;10.77;;;2.50;99.90;;;;;;5011490;28;20474;-64
2023/03/09 05:46:20;;;;;;;13.80;7.53;;;2.40;99.90;;;;;;5011154;28;20449;-68
2023/03/09 05:48:48;;;;;;;16.47;9.90;;;2.40;99.90;;;;;;5010841;28;20513;-66
2023/03/09 05:51:15;;;;;;;19.30;9.73;;;2.40;99.90;;;;;;5011638;28;20492;-53
2023/03/09 05:53:45;;;;;;;17.73;10.60;;;2.50;99.90;;;;;;5018871;28;20462;-58
2023/03/09 05:56:15;;;;;;;17.30;9.17;;;2.40;99.90;;;;;;5019163;28;20461;-63
2023/03/09 05:58:42;;;;;;;24.63;10.17;;;2.40;99.90;;;;;;5018193;28;20450;-64
2023/03/09 06:01:18;;;;;;;14.37;7.90;;;2.40;99.90;;;;;;5018425;28;20446;-64
2023/03/09 06:03:45;;;;;;;22.47;9.17;;;2.30;99.90;;;;;;5018214;28;20420;-65
2023/03/09 06:06:12;;;;;;;18.50;10.60;;;2.30;99.90;;;;;;5018752;28;20446;-63
2023/03/09 06:08:39;;;;;;;18.40;9.00;;;2.30;99.90;;;;;;5017493;28;20446;-61
2023/03/09 06:11:06;;;;;;;17.17;9.03;;;2.30;99.90;;;;;;5017827;28;20505;-58
2023/03/09 06:13:34;;;;;;;17.30;10.50;;;2.30;99.90;;;;;;5018261;28;20606;-62
2023/03/09 06:16:03;;;;;;;22.50;10.77;;;2.40;99.90;;;;;;5017556;28;20453;-56
2023/03/09 06:18:30;;;;;;;20.73;12.40;;;2.40;99.90;;;;;;5018635;28;20444;-60
2023/03/09 06:21:02;;;;;;;14.93;7.67;;;2.40;99.90;;;;;;5017976;28;20457;-68
2023/03/09 06:23:29;;;;;;;17.47;9.40;;;2.40;99.90;;;;;;5017728;28;20510;-61
2023/03/09 06:25:56;;;;;;;21.00;10.90;;;2.40;99.90;;;;;;5017213;28;20455;-63
2023/03/09 06:28:23;;;;;;;13.80;8.87;;;2.40;99.90;;;;;;5016259;28;20470;-66
2023/03/09 06:30:53;;;;;;;11.50;8.30;;;2.40;99.90;;;;;;5015925;28;20486;-55
2023/03/09 06:33:20;;;;;;;15.77;8.80;;;2.50;99.90;;;;;;5015923;28;20489;-65
2023/03/09 06:35:46;;;;;;;20.33;10.57;;;2.40;99.90;;;;;;5015534;28;20450;-67
2023/03/09 06:38:13;;;;;;;18.30;10.00;;;2.50;99.90;;;;;;5015924;28;20431;-65
2023/03/09 06:40:40;;;;;;;16.87;8.50;;;2.50;99.90;;;;;;5016061;28;20453;-62
2023/03/09 06:43:07;;;;;;;15.67;9.23;;;2.50;99.90;;;;;;5015507;28;20465;-64
2023/03/09 06:45:34;;;;;;;14.70;9.77;;;2.50;99.90;;;;;;5015907;28;20442;-63
2023/03/09 06:48:02;;;;;;;22.87;12.70;;;2.50;99.90;;;;;;5015766;28;20453;-61
2023/03/09 06:50:29;;;;;;;15.27;9.30;;;2.50;99.90;;;;;;5015846;28;20498;-60
2023/03/09 06:52:56;;;;;;;19.83;10.37;;;2.50;99.90;;;;;;5015578;28;20453;-65
2023/03/09 06:55:23;;;;;;;17.87;10.10;;;2.50;99.90;;;;;;5015639;28;20494;-68
2023/03/09 06:57:50;;;;;;;18.43;9.60;;;2.60;99.90;;;;;;5015277;28;20430;-59
2023/03/09 07:00:19;;;;;;;19.87;9.67;;;2.60;99.90;;;;;;5015970;28;20477;-68
2023/03/09 07:02:46;;;;;;;11.70;9.20;;;2.70;99.90;;;;;;5015069;28;20465;-65
2023/03/09 07:05:14;;;;;;;13.87;9.83;;;2.70;99.90;;;;;;5015618;28;20458;-65
2023/03/09 07:07:42;;;;;;;18.77;9.57;;;2.70;99.90;;;;;;5015212;28;20477;-65
2023/03/09 07:10:10;;;;;;;17.53;10.70;;;2.70;99.90;;;;;;5015656;28;20485;-62
2023/03/09 07:12:37;;;;;;;13.77;8.47;;;2.80;99.90;;;;;;5014849;28;20466;-63
2023/03/09 07:15:10;;;;;;;13.60;9.20;;;2.90;99.90;;;;;;5017291;28;20461;-58
2023/03/09 07:17:37;;;;;;;14.37;9.97;;;2.80;99.90;;;;;;5018131;28;20426;-57
2023/03/09 07:20:04;;;;;;;15.80;8.87;;;2.90;99.90;;;;;;5017378;28;20426;-63
2023/03/09 07:22:33;;;;;;;14.47;8.20;;;2.80;99.90;;;;;;5016525;28;20446;-61
2023/03/09 07:25:02;;;;;;;17.10;9.40;;;2.80;99.90;;;;;;5016105;28;20457;-58
2023/03/09 07:27:30;;;;;;;17.33;8.63;;;2.80;99.90;;;;;;5016023;28;20438;-63
2023/03/09 07:29:57;;;;;;;17.10;9.87;;;2.80;99.90;;;;;;5015864;28;20493;-63
2023/03/09 07:32:26;;;;;;;12.90;8.30;;;2.80;99.90;;;;;;5014664;28;20454;-65
2023/03/09 07:34:53;;;;;;;12.60;8.37;;;2.90;99.90;;;;;;5014365;28;20469;-65
2023/03/09 07:37:20;;;;;;;11.37;7.00;;;2.90;99.90;;;;;;5014597;28;20430;-63
2023/03/09 07:39:49;;;;;;;14.63;7.40;;;2.90;99.90;;;;;;5014498;28;20483;-59
2023/03/09 07:42:19;;;;;;;14.73;9.90;;;2.90;99.90;;;;;;5014699;28;20450;-62
2023/03/09 07:44:45;;;;;;;12.57;6.23;;;2.90;99.90;;;;;;5014933;28;20457;-59
2023/03/09 07:47:12;;;;;;;16.70;9.00;;;2.90;99.90;;;;;;5014348;28;20473;-64
2023/03/09 07:49:39;;;;;;;8.67;7.03;;;2.90;99.90;;;;;;5014986;28;20477;-60
2023/03/09 07:52:06;;;;;;;12.37;7.47;;;2.90;99.90;;;;;;5014076;28;20483;-65
2023/03/09 07:54:33;;;;;;;10.23;6.57;;;3.00;99.90;;;;;;5014013;28;20449;-66
2023/03/09 07:57:02;;;;;;;9.83;8.10;;;2.90;99.90;;;;;;5014315;28;20470;-66
2023/03/09 07:59:29;;;;;;;12.40;6.47;;;3.00;99.90;;;;;;5014683;28;20430;-67
2023/03/09 08:01:56;;;;;;;9.07;6.17;;;3.00;99.90;;;;;;5015289;28;20434;-65
2023/03/09 08:04:22;;;;;;;8.90;6.37;;;3.10;99.90;;;;;;5014959;28;20472;-61
2023/03/09 08:06:52;;;;;;;11.50;6.60;;;3.10;99.90;;;;;;5015025;28;20441;-63
2023/03/09 08:09:20;;;;;;;10.20;7.20;;;3.10;99.90;;;;;;5016795;28;20486;-62
2023/03/09 08:11:48;;;;;;;10.13;6.73;;;3.20;99.90;;;;;;5015979;28;20485;-61
2023/03/09 08:14:16;;;;;;;10.30;7.03;;;3.30;99.90;;;;;;5016118;28;20534;-63
2023/03/09 08:16:43;;;;;;;10.30;8.33;;;3.30;99.90;;;;;;5016788;28;20446;-60
2023/03/09 08:19:10;;;;;;;15.80;8.40;;;3.30;99.90;;;;;;5014279;28;20457;-67
2023/03/09 08:21:39;;;;;;;11.60;6.97;;;3.30;99.90;;;;;;5013753;28;20469;-63
2023/03/09 08:24:07;;;;;;;11.57;6.00;;;3.30;99.90;;;;;;5014259;28;20954;-59
2023/03/09 08:26:36;;;;;;;12.27;6.97;;;3.20;99.90;;;;;;5014114;28;20470;-65
2023/03/09 08:29:03;;;;;;;12.20;8.53;;;3.30;99.90;;;;;;5014030;28;20508;-65
2023/03/09 08:31:31;;;;;;;12.87;8.77;;;3.30;99.90;;;;;;5013775;28;20489;-65
2023/03/09 08:33:58;;;;;;;11.93;7.17;;;3.30;99.90;;;;;;5013570;28;20724;-65
2023/03/09 08:36:25;;;;;;;11.63;6.77;;;3.30;99.90;;;;;;5013657;28;20496;-62
2023/03/09 08:38:52;;;;;;;13.67;9.07;;;3.40;99.90;;;;;;5013399;28;20447;-64
2023/03/09 08:41:20;;;;;;;18.90;10.63;;;3.30;99.90;;;;;;5013386;28;20450;-67
2023/03/09 08:43:47;;;;;;;15.60;8.47;;;3.30;99.90;;;;;;5014638;28;20469;-60
2023/03/09 08:46:14;;;;;;;12.57;7.80;;;3.30;99.90;;;;;;5013820;28;20445;-65
2023/03/09 08:48:43;;;;;;;13.30;7.23;;;3.40;99.90;;;;;;5013265;28;20476;-67
2023/03/09 08:51:12;;;;;;;15.83;8.70;;;3.40;99.90;;;;;;5013244;28;20496;-68
2023/03/09 08:53:39;;;;;;;14.50;9.40;;;3.30;99.90;;;;;;5013652;28;20470;-66
2023/03/09 08:56:09;;;;;;;15.17;8.33;;;3.30;99.90;;;;;;5015604;28;20438;-64
2023/03/09 08:58:36;;;;;;;12.27;8.53;;;3.30;99.90;;;;;;5016457;28;20449;-60
2023/03/09 09:01:05;;;;;;;13.87;8.47;;;3.30;99.90;;;;;;5016791;28;20429;-61
2023/03/09 09:03:32;;;;;;;12.37;7.43;;;3.30;99.90;;;;;;5019241;28;20466;-62
2023/03/09 09:06:06;;;;;;;18.03;10.07;;;3.30;99.90;;;;;;5019338;28;20933;-66
2023/03/09 09:08:36;;;;;;;12.57;8.23;;;3.30;99.90;;;;;;5018829;28;20415;-62
2023/03/09 09:11:06;;;;;;;19.03;9.77;;;3.40;99.90;;;;;;5017930;28;20516;-66
2023/03/09 09:13:33;;;;;;;22.47;10.07;;;3.30;99.90;;;;;;5019994;28;20437;-60
2023/03/09 09:16:02;;;;;;;12.03;8.70;;;3.40;99.90;;;;;;5019560;28;20473;-68
2023/03/09 09:18:29;;;;;;;13.07;9.90;;;3.40;99.90;;;;;;5016054;28;20489;-65
2023/03/09 09:20:56;;;;;;;17.43;10.23;;;3.40;99.90;;;;;;5017592;28;20457;-63
2023/03/09 09:23:24;;;;;;;19.90;10.20;;;3.40;99.90;;;;;;5019876;28;20446;-59
2023/03/09 09:25:55;;;;;;;17.37;9.93;;;3.40;99.90;;;;;;5016961;28;20438;-65
2023/03/09 09:28:23;;;;;;;13.80;7.80;;;4.20;99.90;;;;;;5015877;28;20480;-64
2023/03/09 09:30:54;;;;;;;19.10;10.60;;;3.40;99.90;;;;;;5016203;28;20496;-68
2023/03/09 09:33:21;;;;;;;17.20;9.90;;;3.40;99.90;;;;;;5015916;28;20474;-63
2023/03/09 09:35:57;;;;;;;15.47;9.30;;;3.40;99.90;;;;;;5016454;28;20473;-67
2023/03/09 09:38:27;;;;;;;17.50;10.67;;;3.40;99.90;;;;;;5016386;28;20642;-65
2023/03/09 09:40:55;;;;;;;21.53;10.10;;;3.40;99.90;;;;;;5016377;28;20414;-67
2023/03/09 09:43:23;;;;;;;18.23;9.30;;;3.40;99.90;;;;;;5016576;28;20458;-64
2023/03/09 09:45:52;;;;;;;22.73;10.93;;;3.40;99.90;;;;;;5016256;28;20434;-67
2023/03/09 09:48:20;;;;;;;15.03;10.00;;;3.40;99.90;;;;;;5015945;28;20449;-62
2023/03/09 09:51:02;;;;;;;17.20;9.87;;;3.50;99.90;;;;;;5017845;28;20513;-61
2023/03/09 09:53:38;;;;;;;15.00;9.53;;;3.50;99.90;;;;;;5019165;28;20442;-62
2023/03/09 09:56:13;;;;;;;16.43;10.17;;;3.50;99.90;;;;;;5018128;28;20469;-65
2023/03/09 09:58:47;;;;;;;13.10;7.40;;;3.60;99.90;;;;;;5016013;28;20430;-66
2023/03/09 10:01:22;;;;;;;13.97;8.73;;;3.60;99.90;;;;;;5015848;28;20465;-61
2023/03/09 10:03:51;;;;;;;12.53;8.47;;;3.60;99.90;;;;;;5016117;28;20434;-66
2023/03/09 10:06:21;;;;;;;14.50;8.60;;;3.60;99.90;;;;;;5016695;28;20429;-64
2023/03/09 10:08:55;;;;;;;16.37;10.00;;;3.60;99.90;;;;;;5018797;28;20454;-63
2023/03/09 10:11:26;;;;;;;14.33;8.37;;;3.30;99.90;;;;;;5018973;28;20470;-61
2023/03/09 10:13:59;;;;;;;15.83;9.27;;;3.60;99.90;;;;;;5018496;28;20489;-60
2023/03/09 10:16:29;;;;;;;21.50;10.77;;;3.70;99.90;;;;;;5015425;28;20445;-65
2023/03/09 10:19:03;;;;;;;13.30;9.50;;;3.60;99.90;;;;;;5015307;28;20470;-64
2023/03/09 10:21:36;;;;;;;17.20;9.47;;;3.60;99.90;;;;;;5014620;28;20423;-67
2023/03/09 10:24:24;;;;;;;21.00;11.40;;;3.60;99.90;;;;;;5014426;28;20470;-60
2023/03/09 10:26:58;;;;;;;13.77;10.20;;;3.60;99.90;;;;;;5014552;28;20443;-64
2023/03/09 10:29:36;;;;;;;16.37;9.87;;;3.60;99.90;;;;;;5014040;28;20509;-65
2023/03/09 10:32:10;;;;;;;13.27;9.70;;;3.60;99.90;;;;;;5014437;28;20466;-65
2023/03/09 10:34:45;;;;;;;22.50;9.67;;;3.60;99.90;;;;;;5014645;28;20489;-65
2023/03/09 10:37:17;;;;;;;16.73;11.33;;;3.60;99.90;;;;;;5014575;28;20441;-66
2023/03/09 10:39:47;;;;;;;19.17;10.57;;;3.60;99.90;;;;;;5013833;28;20419;-67
2023/03/09 10:42:19;;;;;;;20.63;9.60;;;3.70;99.90;;;;;;5013509;28;20458;-65
2023/03/09 10:44:57;;;;;;;16.73;11.07;;;3.70;99.90;;;;;;5014207;28;20442;-64
2023/03/09 10:47:25;;;;;;;14.17;9.10;;;3.60;99.90;;;;;;5013620;28;20458;-66
2023/03/09 10:50:09;;;;;;;16.43;10.40;;;3.60;99.90;;;;;;5014316;28;20477;-66
2023/03/09 10:52:36;;;;;;;15.27;9.00;;;3.60;99.90;;;;;;5013766;28;20493;-65
2023/03/09 10:55:33;;;;;;;19.10;10.77;;;3.80;99.90;;;;;;5014870;28;20457;-62
2023/03/09 10:58:02;;;;;;;17.83;10.57;;;3.60;99.90;;;;;;5014441;28;20490;-66
2023/03/09 11:00:30;;;;;;;21.43;11.00;;;3.60;99.90;;;;;;5014975;28;20434;-60
2023/03/09 11:03:00;;;;;;;18.00;10.07;;;3.10;99.90;;;;;;5014611;28;20489;-65
2023/03/09 11:05:29;;;;;;;20.03;10.30;;;3.60;99.90;;;;;;5013397;28;20454;-63
2023/03/09 11:07:58;;;;;;;17.03;10.50;;;3.60;99.90;;;;;;5013591;28;20509;-66
2023/03/09 11:10:29;;;;;;;16.23;10.93;;;3.60;99.90;;;;;;5013227;28;20469;-64
2023/03/09 11:12:57;;;;;;;19.30;10.10;;;3.60;99.90;;;;;;5013117;28;20476;-66
2023/03/09 11:15:28;;;;;;;17.87;9.90;;;3.60;99.90;;;;;;5013388;28;20446;-66
2023/03/09 11:17:59;;;;;;;21.27;12.47;;;3.60;99.90;;;;;;5013576;28;20462;-66
2023/03/09 11:20:32;;;;;;;16.60;9.33;;;3.60;99.90;;;;;;5013512;28;20470;-64
2023/03/09 11:23:08;;;;;;;13.40;9.20;;;3.60;99.90;;;;;;5013470;28;20430;-69
2023/03/09 11:25:46;;;;;;;21.53;11.40;;;3.60;99.90;;;;;;5012865;28;20491;-67
2023/03/09 11:28:19;;;;;;;26.20;11.50;;;3.60;99.90;;;;;;5013148;28;20501;-68
2023/03/09 11:30:49;;;;;;;15.37;10.60;;;3.60;99.90;;;;;;5013520;28;20476;-63
2023/03/09 11:33:19;;;;;;;22.83;11.80;;;3.60;99.90;;;;;;5013033;28;20455;-67
2023/03/09 11:35:51;;;;;;;17.13;10.60;;;3.60;99.90;;;;;;5013090;28;20430;-64
2023/03/09 11:38:21;;;;;;;16.97;9.97;;;3.70;99.90;;;;;;5013128;28;20414;-67
2023/03/09 11:40:55;;;;;;;19.70;11.47;;;3.70;99.90;;;;;;5012991;28;20504;-63
2023/03/09 11:43:26;;;;;;;20.40;11.43;;;3.70;99.90;;;;;;5013467;28;20493;-66
2023/03/09 11:45:58;;;;;;;21.93;12.17;;;3.70;99.90;;;;;;5013370;28;20438;-62
2023/03/09 11:48:31;;;;;;;23.90;10.13;;;3.70;99.90;;;;;;5013104;28;20461;-67
2023/03/09 11:51:02;;;;;;;19.77;12.70;;;3.60;99.90;;;;;;5013246;28;20438;-63
2023/03/09 11:53:32;;;;;;;20.10;10.47;;;3.60;99.90;;;;;;5016029;28;20480;-62
2023/03/09 11:56:12;;;;;;;22.67;12.80;;;3.60;99.90;;;;;;5016442;28;20750;-53
2023/03/09 11:58:42;;;;;;;20.70;11.67;;;3.60;99.90;;;;;;5016763;28;20454;-57
2023/03/09 12:01:18;;;;;;;24.47;11.23;;;3.70;99.90;;;;;;5016373;28;20450;-61
2023/03/09 12:03:54;;;;;;;15.83;10.50;;;3.70;99.90;;;;;;5027861;28;20417;-65
2023/03/09 12:06:33;;;;;;;17.07;11.20;;;3.70;99.90;;;;;;5035571;28;20444;-62
2023/03/09 12:09:05;;;;;;;16.93;11.60;;;3.70;99.90;;;;;;5036303;28;20430;-65
2023/03/09 12:11:38;;;;;;;18.37;11.47;;;3.60;99.90;;;;;;5035953;28;20445;-66
2023/03/09 12:14:12;;;;;;;15.43;9.20;;;3.60;99.90;;;;;;5036045;28;20436;-62
2023/03/09 12:16:44;;;;;;;19.00;11.63;;;3.70;99.90;;;;;;5036272;28;20477;-61
2023/03/09 12:19:17;;;;;;;20.57;13.20;;;3.60;99.90;;;;;;5036510;28;20452;-61
2023/03/09 12:21:47;;;;;;;19.67;10.10;;;3.70;99.90;;;;;;5035944;28;20480;-60
2023/03/09 12:24:31;;;;;;;19.43;12.20;;;3.70;99.90;;;;;;5036241;28;20437;-59
2023/03/09 12:27:03;;;;;;;18.17;11.93;;;3.80;99.90;;;;;;5036067;28;20460;-61
2023/03/09 12:29:36;;;;;;;21.43;12.63;;;3.80;99.90;;;;;;5036402;28;20430;-60
2023/03/09 12:32:36;;;;;;;17.97;9.97;;;3.70;99.90;;;;;;5016307;28;20470;-69
2023/03/09 12:35:09;;;;;;;25.60;12.13;;;3.70;99.90;;;;;;5013961;28;20565;-67
2023/03/09 12:38:21;;;;;;;18.10;10.67;;;3.70;99.90;;;;;;5016874;28;20465;-69
2023/03/09 12:40:49;;;;;;;21.77;11.03;;;3.70;99.90;;;;;;5015368;28;20469;-67
2023/03/09 12:43:53;;;;;;;19.30;12.63;;;3.70;99.90;;;;;;5026393;28;20465;-62
2023/03/09 12:46:50;;;;;;;25.43;12.70;;;3.80;99.90;;;;;;5039824;28;20429;-64
2023/03/09 12:49:20;;;;;;;19.07;13.00;;;3.80;99.90;;;;;;5040009;28;20464;-62
2023/03/09 12:52:04;;;;;;;16.57;11.23;;;3.80;99.90;;;;;;5040210;28;20468;-56
2023/03/09 12:54:31;;;;;;;22.07;11.70;;;3.80;99.90;;;;;;5039648;28;20438;-61
2023/03/09 12:57:11;;;;;;;22.20;12.07;;;3.80;99.90;;;;;;5037538;28;20450;-64
2023/03/09 12:59:49;;;;;;;19.30;10.57;;;3.80;99.90;;;;;;5039130;28;20436;-65